sensor_id;sensor_type;location;lat;lon;timestamp;P1;durP1;ratioP1;P2;durP2;ratioP2
18166;SDS011;9208;42.688;23.404;2023-05-09T00:00:32;3.87;;;3.57;;
18166;SDS011;9208;42.688;23.404;2023-05-09T00:02:58;4.03;;;3.73;;
18166;SDS011;9208;42.688;23.404;2023-05-09T00:05:24;4.17;;;3.77;;
18166;SDS011;9208;42.688;23.404;2023-05-09T00:07:49;4.10;;;3.80;;
18166;SDS011;9208;42.688;23.404;2023-05-09T00:10:15;4.10;;;3.80;;
18166;SDS011;9208;42.688;23.404;2023-05-09T00:12:40;4.10;;;3.80;;
18166;SDS011;9208;42.688;23.404;2023-05-09T00:15:07;3.57;;;3.27;;
18166;SDS011;9208;42.688;23.404;2023-05-09T00:17:34;3.93;;;3.63;;
18166;SDS011;9208;42.688;23.404;2023-05-09T00:20:04;3.90;;;3.60;;
18166;SDS011;9208;42.688;23.404;2023-05-09T00:22:35;6.80;;;3.30;;
18166;SDS011;9208;42.688;23.404;2023-05-09T00:25:01;3.90;;;3.60;;
18166;SDS011;9208;42.688;23.404;2023-05-09T00:27:26;4.17;;;3.80;;
18166;SDS011;9208;42.688;23.404;2023-05-09T00:29:54;3.93;;;3.63;;
18166;SDS011;9208;42.688;23.404;2023-05-09T00:32:20;4.40;;;4.00;;
18166;SDS011;9208;42.688;23.404;2023-05-09T00:34:45;3.77;;;3.47;;
18166;SDS011;9208;42.688;23.404;2023-05-09T00:37:11;3.70;;;3.40;;
18166;SDS011;9208;42.688;23.404;2023-05-09T00:39:36;3.87;;;3.57;;
18166;SDS011;9208;42.688;23.404;2023-05-09T00:42:01;3.63;;;3.43;;
18166;SDS011;9208;42.688;23.404;2023-05-09T00:44:28;3.37;;;3.17;;
18166;SDS011;9208;42.688;23.404;2023-05-09T00:46:53;4.13;;;3.73;;
18166;SDS011;9208;42.688;23.404;2023-05-09T00:49:19;3.83;;;3.53;;
18166;SDS011;9208;42.688;23.404;2023-05-09T00:51:44;3.93;;;3.37;;
18166;SDS011;9208;42.688;23.404;2023-05-09T00:54:11;3.50;;;3.20;;
18166;SDS011;9208;42.688;23.404;2023-05-09T00:56:37;4.00;;;3.70;;
18166;SDS011;9208;42.688;23.404;2023-05-09T00:59:03;3.97;;;3.60;;
18166;SDS011;9208;42.688;23.404;2023-05-09T01:01:30;3.93;;;3.47;;
18166;SDS011;9208;42.688;23.404;2023-05-09T01:03:56;4.43;;;3.40;;
18166;SDS011;9208;42.688;23.404;2023-05-09T01:06:31;5.53;;;3.37;;
18166;SDS011;9208;42.688;23.404;2023-05-09T01:09:13;3.40;;;3.20;;
18166;SDS011;9208;42.688;23.404;2023-05-09T01:14:48;3.57;;;3.37;;
18166;SDS011;9208;42.688;23.404;2023-05-09T01:17:54;3.53;;;3.07;;
18166;SDS011;9208;42.688;23.404;2023-05-09T01:32:04;3.47;;;3.17;;
18166;SDS011;9208;42.688;23.404;2023-05-09T01:34:32;3.40;;;3.20;;
18166;SDS011;9208;42.688;23.404;2023-05-09T01:36:59;3.00;;;2.80;;
18166;SDS011;9208;42.688;23.404;2023-05-09T01:39:28;3.40;;;3.20;;
18166;SDS011;9208;42.688;23.404;2023-05-09T01:41:56;3.43;;;3.23;;
18166;SDS011;9208;42.688;23.404;2023-05-09T01:44:26;3.63;;;3.33;;
18166;SDS011;9208;42.688;23.404;2023-05-09T01:46:58;3.43;;;3.23;;
18166;SDS011;9208;42.688;23.404;2023-05-09T01:49:25;3.40;;;3.10;;
18166;SDS011;9208;42.688;23.404;2023-05-09T01:51:53;3.23;;;3.03;;
18166;SDS011;9208;42.688;23.404;2023-05-09T01:54:20;3.57;;;3.27;;
18166;SDS011;9208;42.688;23.404;2023-05-09T01:56:47;3.37;;;3.17;;
18166;SDS011;9208;42.688;23.404;2023-05-09T01:59:14;4.03;;;3.60;;
18166;SDS011;9208;42.688;23.404;2023-05-09T02:01:42;3.40;;;3.20;;
18166;SDS011;9208;42.688;23.404;2023-05-09T02:04:08;3.70;;;3.40;;
18166;SDS011;9208;42.688;23.404;2023-05-09T02:06:34;3.47;;;3.20;;
18166;SDS011;9208;42.688;23.404;2023-05-09T02:09:01;3.80;;;3.50;;
18166;SDS011;9208;42.688;23.404;2023-05-09T02:11:27;3.50;;;3.27;;
18166;SDS011;9208;42.688;23.404;2023-05-09T02:13:52;3.60;;;3.30;;
18166;SDS011;9208;42.688;23.404;2023-05-09T02:16:18;3.97;;;3.67;;
18166;SDS011;9208;42.688;23.404;2023-05-09T02:18:43;5.07;;;4.27;;
18166;SDS011;9208;42.688;23.404;2023-05-09T02:21:09;4.10;;;3.73;;
18166;SDS011;9208;42.688;23.404;2023-05-09T02:23:35;4.37;;;4.00;;
18166;SDS011;9208;42.688;23.404;2023-05-09T02:26:01;3.70;;;3.40;;
18166;SDS011;9208;42.688;23.404;2023-05-09T02:28:27;4.53;;;4.13;;
18166;SDS011;9208;42.688;23.404;2023-05-09T02:30:53;4.93;;;4.20;;
18166;SDS011;9208;42.688;23.404;2023-05-09T02:33:21;4.17;;;3.87;;
18166;SDS011;9208;42.688;23.404;2023-05-09T02:35:47;4.40;;;4.10;;
18166;SDS011;9208;42.688;23.404;2023-05-09T02:38:14;4.80;;;4.30;;
18166;SDS011;9208;42.688;23.404;2023-05-09T02:40:41;5.13;;;4.73;;
18166;SDS011;9208;42.688;23.404;2023-05-09T02:43:08;5.70;;;5.23;;
18166;SDS011;9208;42.688;23.404;2023-05-09T02:45:34;5.07;;;4.67;;
18166;SDS011;9208;42.688;23.404;2023-05-09T02:47:59;5.00;;;4.50;;
18166;SDS011;9208;42.688;23.404;2023-05-09T02:50:25;5.07;;;4.73;;
18166;SDS011;9208;42.688;23.404;2023-05-09T02:52:50;5.20;;;4.80;;
18166;SDS011;9208;42.688;23.404;2023-05-09T02:55:16;4.80;;;4.40;;
18166;SDS011;9208;42.688;23.404;2023-05-09T02:57:41;5.43;;;4.93;;
18166;SDS011;9208;42.688;23.404;2023-05-09T03:00:07;5.53;;;5.13;;
18166;SDS011;9208;42.688;23.404;2023-05-09T03:02:34;5.57;;;5.07;;
18166;SDS011;9208;42.688;23.404;2023-05-09T03:05:00;5.47;;;4.97;;
18166;SDS011;9208;42.688;23.404;2023-05-09T03:07:25;4.63;;;4.23;;
18166;SDS011;9208;42.688;23.404;2023-05-09T03:09:51;4.67;;;4.23;;
18166;SDS011;9208;42.688;23.404;2023-05-09T03:12:16;4.93;;;4.53;;
18166;SDS011;9208;42.688;23.404;2023-05-09T03:14:42;5.37;;;4.97;;
18166;SDS011;9208;42.688;23.404;2023-05-09T03:17:07;5.20;;;4.80;;
18166;SDS011;9208;42.688;23.404;2023-05-09T03:19:33;4.97;;;4.57;;
18166;SDS011;9208;42.688;23.404;2023-05-09T03:21:58;6.10;;;5.60;;
18166;SDS011;9208;42.688;23.404;2023-05-09T03:24:25;5.37;;;4.97;;
18166;SDS011;9208;42.688;23.404;2023-05-09T03:26:52;4.90;;;4.50;;
18166;SDS011;9208;42.688;23.404;2023-05-09T03:29:18;5.90;;;5.40;;
18166;SDS011;9208;42.688;23.404;2023-05-09T03:31:43;5.40;;;4.90;;
18166;SDS011;9208;42.688;23.404;2023-05-09T03:34:10;6.57;;;4.73;;
18166;SDS011;9208;42.688;23.404;2023-05-09T03:36:39;4.90;;;4.50;;
18166;SDS011;9208;42.688;23.404;2023-05-09T03:39:06;5.27;;;4.87;;
18166;SDS011;9208;42.688;23.404;2023-05-09T03:41:32;5.17;;;4.77;;
18166;SDS011;9208;42.688;23.404;2023-05-09T03:44:00;5.20;;;4.80;;
18166;SDS011;9208;42.688;23.404;2023-05-09T03:46:25;5.20;;;4.70;;
18166;SDS011;9208;42.688;23.404;2023-05-09T03:48:51;4.70;;;4.30;;
18166;SDS011;9208;42.688;23.404;2023-05-09T03:51:16;5.33;;;4.90;;
18166;SDS011;9208;42.688;23.404;2023-05-09T03:53:44;4.93;;;4.50;;
18166;SDS011;9208;42.688;23.404;2023-05-09T03:56:10;6.27;;;4.60;;
18166;SDS011;9208;42.688;23.404;2023-05-09T03:58:35;4.57;;;4.27;;
18166;SDS011;9208;42.688;23.404;2023-05-09T04:01:01;4.63;;;4.33;;
18166;SDS011;9208;42.688;23.404;2023-05-09T04:03:26;5.57;;;5.10;;
18166;SDS011;9208;42.688;23.404;2023-05-09T04:05:52;4.63;;;4.30;;
18166;SDS011;9208;42.688;23.404;2023-05-09T04:08:18;5.00;;;4.60;;
18166;SDS011;9208;42.688;23.404;2023-05-09T04:10:43;5.10;;;4.70;;
18166;SDS011;9208;42.688;23.404;2023-05-09T04:13:09;7.10;;;5.03;;
18166;SDS011;9208;42.688;23.404;2023-05-09T04:15:35;5.67;;;4.67;;
18166;SDS011;9208;42.688;23.404;2023-05-09T04:18:00;5.17;;;4.70;;
18166;SDS011;9208;42.688;23.404;2023-05-09T04:20:26;4.87;;;4.47;;
18166;SDS011;9208;42.688;23.404;2023-05-09T04:22:52;4.70;;;4.30;;
18166;SDS011;9208;42.688;23.404;2023-05-09T04:25:17;3.90;;;3.57;;
18166;SDS011;9208;42.688;23.404;2023-05-09T04:27:44;3.90;;;3.60;;
18166;SDS011;9208;42.688;23.404;2023-05-09T04:30:09;3.30;;;3.10;;
18166;SDS011;9208;42.688;23.404;2023-05-09T04:32:36;2.53;;;2.33;;
18166;SDS011;9208;42.688;23.404;2023-05-09T04:35:02;2.70;;;2.50;;
18166;SDS011;9208;42.688;23.404;2023-05-09T04:37:28;2.20;;;2.10;;
18166;SDS011;9208;42.688;23.404;2023-05-09T04:39:55;2.20;;;2.10;;
18166;SDS011;9208;42.688;23.404;2023-05-09T04:42:20;2.50;;;2.17;;
18166;SDS011;9208;42.688;23.404;2023-05-09T04:44:46;2.03;;;1.93;;
18166;SDS011;9208;42.688;23.404;2023-05-09T04:47:13;1.87;;;1.77;;
18166;SDS011;9208;42.688;23.404;2023-05-09T04:49:38;2.13;;;2.03;;
18166;SDS011;9208;42.688;23.404;2023-05-09T04:52:04;1.70;;;1.60;;
18166;SDS011;9208;42.688;23.404;2023-05-09T04:54:30;3.13;;;1.63;;
18166;SDS011;9208;42.688;23.404;2023-05-09T04:56:56;1.53;;;1.43;;
18166;SDS011;9208;42.688;23.404;2023-05-09T04:59:22;1.80;;;1.70;;
18166;SDS011;9208;42.688;23.404;2023-05-09T05:01:47;2.90;;;1.70;;
18166;SDS011;9208;42.688;23.404;2023-05-09T05:04:13;2.17;;;1.70;;
18166;SDS011;9208;42.688;23.404;2023-05-09T05:06:38;1.97;;;1.77;;
18166;SDS011;9208;42.688;23.404;2023-05-09T05:09:03;1.90;;;1.80;;
18166;SDS011;9208;42.688;23.404;2023-05-09T05:11:30;2.87;;;2.10;;
18166;SDS011;9208;42.688;23.404;2023-05-09T05:13:55;1.83;;;1.73;;
18166;SDS011;9208;42.688;23.404;2023-05-09T05:16:20;1.30;;;1.30;;
18166;SDS011;9208;42.688;23.404;2023-05-09T05:18:46;1.30;;;1.30;;
18166;SDS011;9208;42.688;23.404;2023-05-09T05:21:12;1.27;;;1.20;;
18166;SDS011;9208;42.688;23.404;2023-05-09T05:23:37;1.20;;;1.10;;
18166;SDS011;9208;42.688;23.404;2023-05-09T05:26:03;0.90;;;0.90;;
18166;SDS011;9208;42.688;23.404;2023-05-09T05:28:28;0.80;;;0.80;;
18166;SDS011;9208;42.688;23.404;2023-05-09T05:30:53;1.10;;;1.00;;
18166;SDS011;9208;42.688;23.404;2023-05-09T05:33:19;0.90;;;0.90;;
18166;SDS011;9208;42.688;23.404;2023-05-09T05:35:45;2.67;;;1.00;;
18166;SDS011;9208;42.688;23.404;2023-05-09T05:38:10;1.00;;;0.90;;
18166;SDS011;9208;42.688;23.404;2023-05-09T05:40:36;1.20;;;1.10;;
18166;SDS011;9208;42.688;23.404;2023-05-09T05:43:01;1.50;;;1.00;;
18166;SDS011;9208;42.688;23.404;2023-05-09T05:45:27;1.00;;;1.00;;
18166;SDS011;9208;42.688;23.404;2023-05-09T05:47:54;1.07;;;1.00;;
18166;SDS011;9208;42.688;23.404;2023-05-09T05:50:20;1.00;;;1.00;;
18166;SDS011;9208;42.688;23.404;2023-05-09T05:52:45;7.00;;;1.60;;
18166;SDS011;9208;42.688;23.404;2023-05-09T05:55:11;5.43;;;1.80;;
18166;SDS011;9208;42.688;23.404;2023-05-09T05:57:36;1.60;;;1.50;;
18166;SDS011;9208;42.688;23.404;2023-05-09T06:00:03;1.27;;;1.20;;
18166;SDS011;9208;42.688;23.404;2023-05-09T06:02:33;2.17;;;1.60;;
18166;SDS011;9208;42.688;23.404;2023-05-09T06:04:58;2.83;;;1.50;;
18166;SDS011;9208;42.688;23.404;2023-05-09T06:07:24;1.50;;;1.40;;
18166;SDS011;9208;42.688;23.404;2023-05-09T06:09:49;3.83;;;1.53;;
18166;SDS011;9208;42.688;23.404;2023-05-09T06:12:15;3.50;;;1.40;;
18166;SDS011;9208;42.688;23.404;2023-05-09T06:14:41;1.70;;;1.03;;
18166;SDS011;9208;42.688;23.404;2023-05-09T06:17:07;1.47;;;0.80;;
18166;SDS011;9208;42.688;23.404;2023-05-09T06:19:32;7.50;;;1.93;;
18166;SDS011;9208;42.688;23.404;2023-05-09T06:21:58;0.80;;;0.80;;
18166;SDS011;9208;42.688;23.404;2023-05-09T06:24:23;0.90;;;0.90;;
18166;SDS011;9208;42.688;23.404;2023-05-09T06:26:49;0.80;;;0.80;;
18166;SDS011;9208;42.688;23.404;2023-05-09T06:29:15;0.80;;;0.80;;
18166;SDS011;9208;42.688;23.404;2023-05-09T06:31:40;1.30;;;0.90;;
18166;SDS011;9208;42.688;23.404;2023-05-09T06:34:06;1.93;;;1.17;;
18166;SDS011;9208;42.688;23.404;2023-05-09T06:36:32;2.63;;;1.20;;
18166;SDS011;9208;42.688;23.404;2023-05-09T06:38:57;0.80;;;0.80;;
18166;SDS011;9208;42.688;23.404;2023-05-09T06:41:23;0.90;;;0.90;;
18166;SDS011;9208;42.688;23.404;2023-05-09T06:43:48;0.93;;;0.93;;
18166;SDS011;9208;42.688;23.404;2023-05-09T06:46:14;1.67;;;1.00;;
18166;SDS011;9208;42.688;23.404;2023-05-09T06:48:39;1.00;;;1.00;;
18166;SDS011;9208;42.688;23.404;2023-05-09T06:51:05;1.37;;;1.00;;
18166;SDS011;9208;42.688;23.404;2023-05-09T06:53:30;1.87;;;1.40;;
18166;SDS011;9208;42.688;23.404;2023-05-09T06:55:56;1.20;;;1.10;;
18166;SDS011;9208;42.688;23.404;2023-05-09T06:58:21;1.23;;;1.07;;
18166;SDS011;9208;42.688;23.404;2023-05-09T07:00:47;2.60;;;1.20;;
18166;SDS011;9208;42.688;23.404;2023-05-09T07:03:13;1.23;;;1.23;;
18166;SDS011;9208;42.688;23.404;2023-05-09T07:05:40;1.93;;;1.20;;
18166;SDS011;9208;42.688;23.404;2023-05-09T07:08:05;2.43;;;1.27;;
18166;SDS011;9208;42.688;23.404;2023-05-09T07:10:31;1.37;;;1.27;;
18166;SDS011;9208;42.688;23.404;2023-05-09T07:12:56;1.90;;;1.10;;
18166;SDS011;9208;42.688;23.404;2023-05-09T07:15:22;2.83;;;1.57;;
18166;SDS011;9208;42.688;23.404;2023-05-09T07:17:47;2.83;;;1.30;;
18166;SDS011;9208;42.688;23.404;2023-05-09T07:20:13;1.27;;;1.17;;
18166;SDS011;9208;42.688;23.404;2023-05-09T07:22:38;1.07;;;1.07;;
18166;SDS011;9208;42.688;23.404;2023-05-09T07:25:06;3.03;;;1.43;;
18166;SDS011;9208;42.688;23.404;2023-05-09T07:27:32;2.60;;;1.30;;
18166;SDS011;9208;42.688;23.404;2023-05-09T07:29:58;1.27;;;1.17;;
18166;SDS011;9208;42.688;23.404;2023-05-09T07:32:23;1.97;;;1.33;;
18166;SDS011;9208;42.688;23.404;2023-05-09T07:34:49;1.87;;;1.00;;
18166;SDS011;9208;42.688;23.404;2023-05-09T07:37:14;2.57;;;1.57;;
18166;SDS011;9208;42.688;23.404;2023-05-09T07:39:40;2.83;;;1.20;;
18166;SDS011;9208;42.688;23.404;2023-05-09T07:42:05;7.50;;;2.13;;
18166;SDS011;9208;42.688;23.404;2023-05-09T07:44:32;4.30;;;1.57;;
18166;SDS011;9208;42.688;23.404;2023-05-09T07:46:57;1.77;;;1.17;;
18166;SDS011;9208;42.688;23.404;2023-05-09T07:49:24;3.30;;;1.47;;
18166;SDS011;9208;42.688;23.404;2023-05-09T07:51:49;1.30;;;1.20;;
18166;SDS011;9208;42.688;23.404;2023-05-09T07:54:15;4.07;;;1.20;;
18166;SDS011;9208;42.688;23.404;2023-05-09T07:56:43;1.07;;;1.00;;
18166;SDS011;9208;42.688;23.404;2023-05-09T07:59:09;1.27;;;1.17;;
18166;SDS011;9208;42.688;23.404;2023-05-09T08:01:36;1.93;;;1.00;;
18166;SDS011;9208;42.688;23.404;2023-05-09T08:04:01;1.27;;;1.00;;
18166;SDS011;9208;42.688;23.404;2023-05-09T08:06:29;0.83;;;0.83;;
18166;SDS011;9208;42.688;23.404;2023-05-09T08:08:54;3.40;;;1.17;;
18166;SDS011;9208;42.688;23.404;2023-05-09T08:11:20;1.60;;;1.20;;
18166;SDS011;9208;42.688;23.404;2023-05-09T08:13:45;1.40;;;1.00;;
18166;SDS011;9208;42.688;23.404;2023-05-09T08:16:12;0.83;;;0.83;;
18166;SDS011;9208;42.688;23.404;2023-05-09T08:18:41;1.47;;;1.17;;
18166;SDS011;9208;42.688;23.404;2023-05-09T08:21:07;1.47;;;1.00;;
18166;SDS011;9208;42.688;23.404;2023-05-09T08:23:32;1.00;;;1.00;;
18166;SDS011;9208;42.688;23.404;2023-05-09T08:25:58;4.27;;;1.73;;
18166;SDS011;9208;42.688;23.404;2023-05-09T08:28:23;17.37;;;3.30;;
18166;SDS011;9208;42.688;23.404;2023-05-09T08:30:49;7.47;;;1.83;;
18166;SDS011;9208;42.688;23.404;2023-05-09T08:33:18;7.27;;;1.50;;
18166;SDS011;9208;42.688;23.404;2023-05-09T08:35:44;1.73;;;1.20;;
18166;SDS011;9208;42.688;23.404;2023-05-09T08:38:09;5.13;;;1.60;;
18166;SDS011;9208;42.688;23.404;2023-05-09T08:40:35;11.43;;;2.60;;
18166;SDS011;9208;42.688;23.404;2023-05-09T08:43:05;2.00;;;1.10;;
18166;SDS011;9208;42.688;23.404;2023-05-09T08:45:31;0.83;;;0.83;;
18166;SDS011;9208;42.688;23.404;2023-05-09T08:48:01;0.80;;;0.80;;
18166;SDS011;9208;42.688;23.404;2023-05-09T08:50:27;0.90;;;0.90;;
18166;SDS011;9208;42.688;23.404;2023-05-09T08:52:53;1.00;;;1.00;;
18166;SDS011;9208;42.688;23.404;2023-05-09T08:55:19;0.93;;;0.90;;
18166;SDS011;9208;42.688;23.404;2023-05-09T08:57:45;0.90;;;0.90;;
18166;SDS011;9208;42.688;23.404;2023-05-09T09:00:11;1.10;;;1.00;;
18166;SDS011;9208;42.688;23.404;2023-05-09T09:02:41;1.60;;;1.10;;
18166;SDS011;9208;42.688;23.404;2023-05-09T09:05:07;1.10;;;1.00;;
18166;SDS011;9208;42.688;23.404;2023-05-09T09:07:33;6.90;;;1.67;;
18166;SDS011;9208;42.688;23.404;2023-05-09T09:10:02;0.90;;;0.80;;
18166;SDS011;9208;42.688;23.404;2023-05-09T09:12:29;2.10;;;1.13;;
18166;SDS011;9208;42.688;23.404;2023-05-09T09:14:55;4.87;;;1.60;;
18166;SDS011;9208;42.688;23.404;2023-05-09T09:17:28;1.00;;;0.90;;
18166;SDS011;9208;42.688;23.404;2023-05-09T09:19:57;3.00;;;0.90;;
18166;SDS011;9208;42.688;23.404;2023-05-09T09:22:25;1.40;;;1.07;;
18166;SDS011;9208;42.688;23.404;2023-05-09T09:24:58;1.20;;;1.20;;
18166;SDS011;9208;42.688;23.404;2023-05-09T09:27:25;1.17;;;1.17;;
18166;SDS011;9208;42.688;23.404;2023-05-09T09:29:51;0.90;;;0.90;;
18166;SDS011;9208;42.688;23.404;2023-05-09T09:32:16;1.10;;;1.10;;
18166;SDS011;9208;42.688;23.404;2023-05-09T09:34:43;0.90;;;0.90;;
18166;SDS011;9208;42.688;23.404;2023-05-09T09:37:22;1.20;;;1.00;;
18166;SDS011;9208;42.688;23.404;2023-05-09T09:39:54;1.30;;;1.20;;
18166;SDS011;9208;42.688;23.404;2023-05-09T09:42:20;1.10;;;1.10;;
18166;SDS011;9208;42.688;23.404;2023-05-09T09:45:07;1.30;;;1.30;;
18166;SDS011;9208;42.688;23.404;2023-05-09T09:47:33;1.20;;;1.20;;
18166;SDS011;9208;42.688;23.404;2023-05-09T09:50:03;4.20;;;1.57;;
18166;SDS011;9208;42.688;23.404;2023-05-09T09:55:08;3.43;;;1.53;;
18166;SDS011;9208;42.688;23.404;2023-05-09T09:57:37;2.23;;;1.23;;
18166;SDS011;9208;42.688;23.404;2023-05-09T10:00:05;2.20;;;1.50;;
18166;SDS011;9208;42.688;23.404;2023-05-09T10:02:32;3.47;;;1.70;;
18166;SDS011;9208;42.688;23.404;2023-05-09T10:05:06;1.17;;;1.10;;
18166;SDS011;9208;42.688;23.404;2023-05-09T10:07:33;2.43;;;2.00;;
18166;SDS011;9208;42.688;23.404;2023-05-09T10:09:59;2.30;;;1.63;;
18166;SDS011;9208;42.688;23.404;2023-05-09T10:12:30;3.10;;;1.43;;
18166;SDS011;9208;42.688;23.404;2023-05-09T10:14:59;1.47;;;1.37;;
18166;SDS011;9208;42.688;23.404;2023-05-09T10:17:26;1.93;;;1.63;;
18166;SDS011;9208;42.688;23.404;2023-05-09T10:19:55;2.20;;;1.30;;
18166;SDS011;9208;42.688;23.404;2023-05-09T10:22:20;4.07;;;1.73;;
18166;SDS011;9208;42.688;23.404;2023-05-09T10:24:54;2.20;;;1.30;;
18166;SDS011;9208;42.688;23.404;2023-05-09T10:27:36;2.93;;;1.10;;
18166;SDS011;9208;42.688;23.404;2023-05-09T10:30:11;2.00;;;1.40;;
18166;SDS011;9208;42.688;23.404;2023-05-09T10:32:42;2.10;;;1.40;;
18166;SDS011;9208;42.688;23.404;2023-05-09T10:35:10;2.03;;;1.40;;
18166;SDS011;9208;42.688;23.404;2023-05-09T10:37:38;1.87;;;1.43;;
18166;SDS011;9208;42.688;23.404;2023-05-09T10:40:05;1.50;;;1.40;;
18166;SDS011;9208;42.688;23.404;2023-05-09T10:42:31;2.97;;;1.37;;
18166;SDS011;9208;42.688;23.404;2023-05-09T10:44:56;1.43;;;1.33;;
18166;SDS011;9208;42.688;23.404;2023-05-09T10:47:25;2.53;;;1.97;;
18166;SDS011;9208;42.688;23.404;2023-05-09T10:49:52;2.50;;;2.30;;
18166;SDS011;9208;42.688;23.404;2023-05-09T10:52:21;2.10;;;1.90;;
18166;SDS011;9208;42.688;23.404;2023-05-09T10:55:05;5.17;;;2.87;;
18166;SDS011;9208;42.688;23.404;2023-05-09T10:57:31;7.13;;;2.40;;
18166;SDS011;9208;42.688;23.404;2023-05-09T10:59:57;2.83;;;2.00;;
18166;SDS011;9208;42.688;23.404;2023-05-09T11:02:24;3.87;;;2.10;;
18166;SDS011;9208;42.688;23.404;2023-05-09T11:05:14;3.30;;;2.00;;
18166;SDS011;9208;42.688;23.404;2023-05-09T11:07:41;9.17;;;2.43;;
18166;SDS011;9208;42.688;23.404;2023-05-09T11:10:14;2.60;;;2.13;;
18166;SDS011;9208;42.688;23.404;2023-05-09T11:12:57;5.27;;;2.40;;
18166;SDS011;9208;42.688;23.404;2023-05-09T11:15:24;5.07;;;2.60;;
18166;SDS011;9208;42.688;23.404;2023-05-09T11:18:04;2.10;;;1.90;;
18166;SDS011;9208;42.688;23.404;2023-05-09T11:20:34;1.90;;;1.80;;
18166;SDS011;9208;42.688;23.404;2023-05-09T11:23:06;2.80;;;2.07;;
18166;SDS011;9208;42.688;23.404;2023-05-09T11:25:34;1.77;;;1.67;;
18166;SDS011;9208;42.688;23.404;2023-05-09T11:28:00;2.37;;;2.00;;
18166;SDS011;9208;42.688;23.404;2023-05-09T11:30:37;2.10;;;2.00;;
18166;SDS011;9208;42.688;23.404;2023-05-09T11:33:04;2.80;;;2.10;;
18166;SDS011;9208;42.688;23.404;2023-05-09T11:35:46;2.23;;;2.07;;
18166;SDS011;9208;42.688;23.404;2023-05-09T11:38:13;2.60;;;2.40;;
18166;SDS011;9208;42.688;23.404;2023-05-09T11:40:45;3.67;;;2.13;;
18166;SDS011;9208;42.688;23.404;2023-05-09T11:43:11;2.23;;;2.13;;
18166;SDS011;9208;42.688;23.404;2023-05-09T11:45:37;2.97;;;2.00;;
18166;SDS011;9208;42.688;23.404;2023-05-09T11:48:07;2.30;;;2.10;;
18166;SDS011;9208;42.688;23.404;2023-05-09T11:50:32;3.73;;;2.13;;
18166;SDS011;9208;42.688;23.404;2023-05-09T11:52:58;2.67;;;1.77;;
18166;SDS011;9208;42.688;23.404;2023-05-09T11:55:23;2.27;;;2.07;;
18166;SDS011;9208;42.688;23.404;2023-05-09T11:57:52;2.60;;;2.40;;
18166;SDS011;9208;42.688;23.404;2023-05-09T12:00:19;2.53;;;2.33;;
18166;SDS011;9208;42.688;23.404;2023-05-09T12:02:47;2.67;;;2.23;;
18166;SDS011;9208;42.688;23.404;2023-05-09T12:05:14;2.40;;;2.20;;
18166;SDS011;9208;42.688;23.404;2023-05-09T12:07:42;6.17;;;3.10;;
18166;SDS011;9208;42.688;23.404;2023-05-09T12:10:09;3.50;;;2.50;;
18166;SDS011;9208;42.688;23.404;2023-05-09T12:12:56;3.37;;;2.27;;
18166;SDS011;9208;42.688;23.404;2023-05-09T12:15:22;3.97;;;2.40;;
18166;SDS011;9208;42.688;23.404;2023-05-09T12:17:59;2.30;;;1.83;;
18166;SDS011;9208;42.688;23.404;2023-05-09T12:20:26;1.83;;;1.70;;
18166;SDS011;9208;42.688;23.404;2023-05-09T12:22:52;1.97;;;1.87;;
18166;SDS011;9208;42.688;23.404;2023-05-09T12:25:18;2.00;;;1.90;;
18166;SDS011;9208;42.688;23.404;2023-05-09T12:27:43;1.90;;;1.70;;
18166;SDS011;9208;42.688;23.404;2023-05-09T12:30:10;1.77;;;1.67;;
18166;SDS011;9208;42.688;23.404;2023-05-09T12:32:40;1.90;;;1.80;;
18166;SDS011;9208;42.688;23.404;2023-05-09T12:35:07;2.13;;;1.50;;
18166;SDS011;9208;42.688;23.404;2023-05-09T12:37:33;1.60;;;1.50;;
18166;SDS011;9208;42.688;23.404;2023-05-09T12:40:07;2.07;;;1.57;;
18166;SDS011;9208;42.688;23.404;2023-05-09T12:42:36;2.07;;;1.30;;
18166;SDS011;9208;42.688;23.404;2023-05-09T12:45:02;3.23;;;1.20;;
18166;SDS011;9208;42.688;23.404;2023-05-09T12:47:31;1.17;;;1.17;;
18166;SDS011;9208;42.688;23.404;2023-05-09T12:49:57;2.20;;;1.20;;
18166;SDS011;9208;42.688;23.404;2023-05-09T12:52:24;2.97;;;1.50;;
18166;SDS011;9208;42.688;23.404;2023-05-09T12:54:52;1.50;;;1.00;;
18166;SDS011;9208;42.688;23.404;2023-05-09T12:57:21;4.87;;;1.30;;
18166;SDS011;9208;42.688;23.404;2023-05-09T12:59:48;5.13;;;1.93;;
18166;SDS011;9208;42.688;23.404;2023-05-09T13:02:13;3.13;;;1.77;;
18166;SDS011;9208;42.688;23.404;2023-05-09T13:04:39;3.87;;;2.60;;
18166;SDS011;9208;42.688;23.404;2023-05-09T13:07:08;3.43;;;2.40;;
18166;SDS011;9208;42.688;23.404;2023-05-09T13:09:34;4.93;;;2.60;;
18166;SDS011;9208;42.688;23.404;2023-05-09T13:12:01;1.90;;;1.73;;
18166;SDS011;9208;42.688;23.404;2023-05-09T13:14:33;4.57;;;2.43;;
18166;SDS011;9208;42.688;23.404;2023-05-09T13:16:59;8.83;;;3.70;;
18166;SDS011;9208;42.688;23.404;2023-05-09T13:19:26;5.80;;;2.77;;
18166;SDS011;9208;42.688;23.404;2023-05-09T13:21:53;3.57;;;2.47;;
18166;SDS011;9208;42.688;23.404;2023-05-09T13:24:19;3.10;;;2.20;;
18166;SDS011;9208;42.688;23.404;2023-05-09T13:26:44;3.10;;;2.17;;
18166;SDS011;9208;42.688;23.404;2023-05-09T13:29:10;3.57;;;2.67;;
18166;SDS011;9208;42.688;23.404;2023-05-09T13:31:35;3.53;;;2.30;;
18166;SDS011;9208;42.688;23.404;2023-05-09T13:34:01;9.73;;;2.73;;
18166;SDS011;9208;42.688;23.404;2023-05-09T13:36:26;5.47;;;2.90;;
18166;SDS011;9208;42.688;23.404;2023-05-09T13:38:52;4.43;;;3.10;;
18166;SDS011;9208;42.688;23.404;2023-05-09T13:41:17;4.87;;;2.93;;
18166;SDS011;9208;42.688;23.404;2023-05-09T13:43:47;3.43;;;2.70;;
18166;SDS011;9208;42.688;23.404;2023-05-09T13:46:13;3.40;;;2.37;;
18166;SDS011;9208;42.688;23.404;2023-05-09T13:48:39;2.10;;;1.90;;
18166;SDS011;9208;42.688;23.404;2023-05-09T13:51:04;2.13;;;2.00;;
18166;SDS011;9208;42.688;23.404;2023-05-09T13:53:31;3.20;;;1.80;;
18166;SDS011;9208;42.688;23.404;2023-05-09T13:55:57;6.00;;;1.87;;
18166;SDS011;9208;42.688;23.404;2023-05-09T13:58:22;1.83;;;1.70;;
18166;SDS011;9208;42.688;23.404;2023-05-09T14:00:48;1.77;;;1.60;;
18166;SDS011;9208;42.688;23.404;2023-05-09T14:03:16;1.67;;;1.53;;
18166;SDS011;9208;42.688;23.404;2023-05-09T14:05:41;2.00;;;1.50;;
18166;SDS011;9208;42.688;23.404;2023-05-09T14:08:07;1.47;;;1.47;;
18166;SDS011;9208;42.688;23.404;2023-05-09T14:10:32;3.43;;;2.10;;
18166;SDS011;9208;42.688;23.404;2023-05-09T14:12:58;1.40;;;1.30;;
18166;SDS011;9208;42.688;23.404;2023-05-09T14:15:24;4.27;;;1.80;;
18166;SDS011;9208;42.688;23.404;2023-05-09T14:17:50;3.30;;;1.67;;
18166;SDS011;9208;42.688;23.404;2023-05-09T14:20:15;5.07;;;1.83;;
18166;SDS011;9208;42.688;23.404;2023-05-09T14:22:40;3.20;;;1.30;;
18166;SDS011;9208;42.688;23.404;2023-05-09T14:25:06;4.90;;;1.90;;
18166;SDS011;9208;42.688;23.404;2023-05-09T14:27:32;2.10;;;1.40;;
18166;SDS011;9208;42.688;23.404;2023-05-09T14:30:01;2.53;;;1.30;;
18166;SDS011;9208;42.688;23.404;2023-05-09T14:32:27;1.90;;;1.40;;
18166;SDS011;9208;42.688;23.404;2023-05-09T14:34:53;1.93;;;1.47;;
18166;SDS011;9208;42.688;23.404;2023-05-09T14:37:18;3.13;;;1.17;;
18166;SDS011;9208;42.688;23.404;2023-05-09T14:39:43;2.60;;;1.20;;
18166;SDS011;9208;42.688;23.404;2023-05-09T14:42:09;2.53;;;1.20;;
18166;SDS011;9208;42.688;23.404;2023-05-09T14:44:38;2.17;;;1.20;;
18166;SDS011;9208;42.688;23.404;2023-05-09T14:47:05;1.50;;;1.33;;
18166;SDS011;9208;42.688;23.404;2023-05-09T14:49:31;5.07;;;1.60;;
18166;SDS011;9208;42.688;23.404;2023-05-09T14:51:57;4.77;;;1.50;;
18166;SDS011;9208;42.688;23.404;2023-05-09T14:54:23;1.67;;;1.10;;
18166;SDS011;9208;42.688;23.404;2023-05-09T14:56:48;2.40;;;1.83;;
18166;SDS011;9208;42.688;23.404;2023-05-09T14:59:14;2.37;;;1.33;;
18166;SDS011;9208;42.688;23.404;2023-05-09T15:01:39;5.87;;;1.50;;
18166;SDS011;9208;42.688;23.404;2023-05-09T15:04:05;2.23;;;1.30;;